sensor_id;sensor_type;location;lat;lon;timestamp;P1;durP1;ratioP1;P2;durP2;ratioP2
1000;SDS011;489;47.806;12.858;2023-11-19T00:00:20;2.70;;;1.80;;
1000;SDS011;489;47.806;12.858;2023-11-19T00:02:23;1.63;;;1.00;;
1000;SDS011;489;47.806;12.858;2023-11-19T00:04:25;1.33;;;1.00;;
1000;SDS011;489;47.806;12.858;2023-11-19T00:06:28;1.10;;;0.97;;
1000;SDS011;489;47.806;12.858;2023-11-19T00:08:30;0.93;;;0.83;;
1000;SDS011;489;47.806;12.858;2023-11-19T00:10:32;1.27;;;0.97;;
1000;SDS011;489;47.806;12.858;2023-11-19T00:12:33;1.20;;;1.07;;
1000;SDS011;489;47.806;12.858;2023-11-19T00:14:35;1.43;;;0.90;;
1000;SDS011;489;47.806;12.858;2023-11-19T00:16:39;0.90;;;0.87;;
1000;SDS011;489;47.806;12.858;2023-11-19T00:18:41;0.80;;;0.80;;
1000;SDS011;489;47.806;12.858;2023-11-19T00:20:43;1.20;;;1.10;;
1000;SDS011;489;47.806;12.858;2023-11-19T00:22:45;1.50;;;1.20;;
1000;SDS011;489;47.806;12.858;2023-11-19T00:24:48;1.20;;;0.90;;
1000;SDS011;489;47.806;12.858;2023-11-19T00:26:50;1.10;;;0.90;;
1000;SDS011;489;47.806;12.858;2023-11-19T00:28:52;1.13;;;0.90;;
1000;SDS011;489;47.806;12.858;2023-11-19T00:30:54;1.13;;;1.03;;
1000;SDS011;489;47.806;12.858;2023-11-19T00:32:58;1.43;;;1.33;;
1000;SDS011;489;47.806;12.858;2023-11-19T00:35:00;1.70;;;1.40;;
1000;SDS011;489;47.806;12.858;2023-11-19T00:37:03;7.87;;;5.50;;
1000;SDS011;489;47.806;12.858;2023-11-19T00:39:04;2.30;;;2.10;;
1000;SDS011;489;47.806;12.858;2023-11-19T00:41:06;1.63;;;1.53;;
1000;SDS011;489;47.806;12.858;2023-11-19T00:43:08;2.07;;;1.97;;
1000;SDS011;489;47.806;12.858;2023-11-19T00:45:10;1.90;;;1.80;;
1000;SDS011;489;47.806;12.858;2023-11-19T00:47:13;2.70;;;2.03;;
1000;SDS011;489;47.806;12.858;2023-11-19T00:49:16;1.77;;;1.30;;
1000;SDS011;489;47.806;12.858;2023-11-19T00:51:17;2.23;;;1.73;;
1000;SDS011;489;47.806;12.858;2023-11-19T00:53:19;1.60;;;1.50;;
1000;SDS011;489;47.806;12.858;2023-11-19T00:55:22;1.97;;;1.40;;
1000;SDS011;489;47.806;12.858;2023-11-19T00:57:24;1.57;;;1.40;;
1000;SDS011;489;47.806;12.858;2023-11-19T00:59:26;1.50;;;1.40;;
1000;SDS011;489;47.806;12.858;2023-11-19T01:01:29;1.67;;;1.30;;
1000;SDS011;489;47.806;12.858;2023-11-19T01:03:31;1.43;;;1.30;;
1000;SDS011;489;47.806;12.858;2023-11-19T01:05:34;1.53;;;1.17;;
1000;SDS011;489;47.806;12.858;2023-11-19T01:07:36;1.40;;;1.20;;
1000;SDS011;489;47.806;12.858;2023-11-19T01:09:41;1.40;;;1.30;;
1000;SDS011;489;47.806;12.858;2023-11-19T01:11:42;1.60;;;1.20;;
1000;SDS011;489;47.806;12.858;2023-11-19T01:13:44;1.73;;;1.60;;
1000;SDS011;489;47.806;12.858;2023-11-19T01:15:46;2.03;;;1.40;;
1000;SDS011;489;47.806;12.858;2023-11-19T01:17:48;1.70;;;1.33;;
1000;SDS011;489;47.806;12.858;2023-11-19T01:19:50;1.50;;;1.40;;
1000;SDS011;489;47.806;12.858;2023-11-19T01:21:53;1.40;;;1.20;;
1000;SDS011;489;47.806;12.858;2023-11-19T01:23:56;1.00;;;0.90;;
1000;SDS011;489;47.806;12.858;2023-11-19T01:25:59;1.07;;;0.60;;
1000;SDS011;489;47.806;12.858;2023-11-19T01:28:00;1.00;;;0.90;;
1000;SDS011;489;47.806;12.858;2023-11-19T01:30:04;1.37;;;1.27;;
1000;SDS011;489;47.806;12.858;2023-11-19T01:32:10;1.50;;;1.17;;
1000;SDS011;489;47.806;12.858;2023-11-19T01:34:12;1.80;;;1.23;;
1000;SDS011;489;47.806;12.858;2023-11-19T01:36:14;1.47;;;1.33;;
1000;SDS011;489;47.806;12.858;2023-11-19T01:38:18;2.00;;;1.60;;
1000;SDS011;489;47.806;12.858;2023-11-19T01:40:21;2.03;;;1.40;;
1000;SDS011;489;47.806;12.858;2023-11-19T01:42:23;1.93;;;1.43;;
1000;SDS011;489;47.806;12.858;2023-11-19T01:44:25;1.83;;;1.57;;
1000;SDS011;489;47.806;12.858;2023-11-19T01:46:27;1.70;;;1.50;;
1000;SDS011;489;47.806;12.858;2023-11-19T01:48:29;1.70;;;1.43;;
1000;SDS011;489;47.806;12.858;2023-11-19T01:50:31;1.20;;;1.10;;
1000;SDS011;489;47.806;12.858;2023-11-19T01:52:34;1.87;;;1.67;;
1000;SDS011;489;47.806;12.858;2023-11-19T01:54:38;2.10;;;1.90;;
1000;SDS011;489;47.806;12.858;2023-11-19T01:56:40;1.40;;;1.30;;
1000;SDS011;489;47.806;12.858;2023-11-19T01:58:43;1.80;;;1.70;;
1000;SDS011;489;47.806;12.858;2023-11-19T02:00:45;2.17;;;1.80;;
1000;SDS011;489;47.806;12.858;2023-11-19T02:02:48;1.57;;;1.47;;
1000;SDS011;489;47.806;12.858;2023-11-19T02:04:50;1.97;;;1.60;;
1000;SDS011;489;47.806;12.858;2023-11-19T02:06:54;1.40;;;1.30;;
1000;SDS011;489;47.806;12.858;2023-11-19T02:08:58;1.73;;;1.63;;
1000;SDS011;489;47.806;12.858;2023-11-19T02:11:02;1.60;;;1.50;;
1000;SDS011;489;47.806;12.858;2023-11-19T02:13:07;1.80;;;1.70;;
1000;SDS011;489;47.806;12.858;2023-11-19T02:15:10;1.70;;;1.60;;
1000;SDS011;489;47.806;12.858;2023-11-19T02:17:24;2.43;;;2.23;;
1000;SDS011;489;47.806;12.858;2023-11-19T02:19:27;3.07;;;2.00;;
1000;SDS011;489;47.806;12.858;2023-11-19T02:21:30;2.20;;;2.00;;
1000;SDS011;489;47.806;12.858;2023-11-19T02:23:32;2.00;;;1.80;;
1000;SDS011;489;47.806;12.858;2023-11-19T02:25:34;2.30;;;2.10;;
1000;SDS011;489;47.806;12.858;2023-11-19T02:27:43;1.77;;;1.57;;
1000;SDS011;489;47.806;12.858;2023-11-19T02:29:50;1.80;;;1.70;;
1000;SDS011;489;47.806;12.858;2023-11-19T02:31:52;2.13;;;1.93;;
1000;SDS011;489;47.806;12.858;2023-11-19T02:33:55;2.10;;;1.90;;
1000;SDS011;489;47.806;12.858;2023-11-19T02:35:57;1.77;;;1.60;;
1000;SDS011;489;47.806;12.858;2023-11-19T02:37:59;2.00;;;1.80;;
1000;SDS011;489;47.806;12.858;2023-11-19T02:40:04;2.10;;;1.50;;
1000;SDS011;489;47.806;12.858;2023-11-19T02:42:08;1.70;;;1.60;;
1000;SDS011;489;47.806;12.858;2023-11-19T02:44:13;1.60;;;1.50;;
1000;SDS011;489;47.806;12.858;2023-11-19T02:46:14;1.70;;;1.40;;
1000;SDS011;489;47.806;12.858;2023-11-19T02:48:17;1.87;;;1.40;;
1000;SDS011;489;47.806;12.858;2023-11-19T02:50:20;2.00;;;1.80;;
1000;SDS011;489;47.806;12.858;2023-11-19T02:52:27;1.50;;;1.40;;
1000;SDS011;489;47.806;12.858;2023-11-19T02:54:28;1.47;;;1.30;;
1000;SDS011;489;47.806;12.858;2023-11-19T02:56:35;1.03;;;0.90;;
1000;SDS011;489;47.806;12.858;2023-11-19T02:58:39;1.63;;;1.50;;
1000;SDS011;489;47.806;12.858;2023-11-19T03:00:42;1.83;;;1.73;;
1000;SDS011;489;47.806;12.858;2023-11-19T03:02:52;1.40;;;1.30;;
1000;SDS011;489;47.806;12.858;2023-11-19T03:05:00;1.60;;;1.50;;
1000;SDS011;489;47.806;12.858;2023-11-19T03:07:02;2.00;;;1.80;;
1000;SDS011;489;47.806;12.858;2023-11-19T03:09:04;1.90;;;1.70;;
1000;SDS011;489;47.806;12.858;2023-11-19T03:11:10;1.57;;;1.30;;
1000;SDS011;489;47.806;12.858;2023-11-19T03:13:13;1.93;;;1.67;;
1000;SDS011;489;47.806;12.858;2023-11-19T03:15:14;2.03;;;1.80;;
1000;SDS011;489;47.806;12.858;2023-11-19T03:17:18;2.67;;;1.87;;
1000;SDS011;489;47.806;12.858;2023-11-19T03:19:19;2.23;;;1.90;;
1000;SDS011;489;47.806;12.858;2023-11-19T03:21:26;2.17;;;1.97;;
1000;SDS011;489;47.806;12.858;2023-11-19T03:23:29;2.13;;;1.90;;
1000;SDS011;489;47.806;12.858;2023-11-19T03:25:31;1.93;;;1.83;;
1000;SDS011;489;47.806;12.858;2023-11-19T03:27:35;2.33;;;1.97;;
1000;SDS011;489;47.806;12.858;2023-11-19T03:29:38;1.80;;;1.60;;
1000;SDS011;489;47.806;12.858;2023-11-19T03:31:41;2.23;;;1.80;;
1000;SDS011;489;47.806;12.858;2023-11-19T03:33:45;2.00;;;1.80;;
1000;SDS011;489;47.806;12.858;2023-11-19T03:35:47;2.20;;;1.97;;
1000;SDS011;489;47.806;12.858;2023-11-19T03:37:49;1.70;;;1.60;;
1000;SDS011;489;47.806;12.858;2023-11-19T03:39:50;2.47;;;2.27;;
1000;SDS011;489;47.806;12.858;2023-11-19T03:41:52;1.90;;;1.80;;
1000;SDS011;489;47.806;12.858;2023-11-19T03:43:54;2.10;;;1.90;;
1000;SDS011;489;47.806;12.858;2023-11-19T03:45:56;2.70;;;2.30;;
1000;SDS011;489;47.806;12.858;2023-11-19T03:47:57;2.90;;;2.40;;
1000;SDS011;489;47.806;12.858;2023-11-19T03:50:00;2.30;;;2.10;;
1000;SDS011;489;47.806;12.858;2023-11-19T03:52:01;1.90;;;1.70;;
1000;SDS011;489;47.806;12.858;2023-11-19T03:54:04;2.57;;;2.30;;
1000;SDS011;489;47.806;12.858;2023-11-19T03:56:07;3.30;;;1.80;;
1000;SDS011;489;47.806;12.858;2023-11-19T03:58:10;2.13;;;1.90;;
1000;SDS011;489;47.806;12.858;2023-11-19T04:00:12;2.03;;;1.73;;
1000;SDS011;489;47.806;12.858;2023-11-19T04:02:15;1.83;;;1.67;;
1000;SDS011;489;47.806;12.858;2023-11-19T04:04:17;2.27;;;2.07;;
1000;SDS011;489;47.806;12.858;2023-11-19T04:06:20;2.70;;;2.30;;
1000;SDS011;489;47.806;12.858;2023-11-19T04:08:22;2.30;;;2.10;;
1000;SDS011;489;47.806;12.858;2023-11-19T04:10:24;2.20;;;2.00;;
1000;SDS011;489;47.806;12.858;2023-11-19T04:12:27;2.17;;;1.83;;
1000;SDS011;489;47.806;12.858;2023-11-19T04:14:29;2.77;;;1.70;;
1000;SDS011;489;47.806;12.858;2023-11-19T04:16:31;2.40;;;2.20;;
1000;SDS011;489;47.806;12.858;2023-11-19T04:18:32;2.80;;;2.60;;
1000;SDS011;489;47.806;12.858;2023-11-19T04:20:34;2.60;;;2.20;;
1000;SDS011;489;47.806;12.858;2023-11-19T04:22:38;1.93;;;1.80;;
1000;SDS011;489;47.806;12.858;2023-11-19T04:24:40;2.40;;;2.20;;
1000;SDS011;489;47.806;12.858;2023-11-19T04:26:44;2.33;;;2.13;;
1000;SDS011;489;47.806;12.858;2023-11-19T04:28:46;2.27;;;2.03;;
1000;SDS011;489;47.806;12.858;2023-11-19T04:30:49;2.30;;;2.10;;
1000;SDS011;489;47.806;12.858;2023-11-19T04:32:52;2.57;;;2.37;;
1000;SDS011;489;47.806;12.858;2023-11-19T04:34:54;2.70;;;2.27;;
1000;SDS011;489;47.806;12.858;2023-11-19T04:36:56;2.40;;;2.20;;
1000;SDS011;489;47.806;12.858;2023-11-19T04:38:58;4.13;;;3.27;;
1000;SDS011;489;47.806;12.858;2023-11-19T04:41:01;3.30;;;2.77;;
1000;SDS011;489;47.806;12.858;2023-11-19T04:43:03;3.40;;;3.10;;
1000;SDS011;489;47.806;12.858;2023-11-19T04:45:05;7.03;;;6.43;;
1000;SDS011;489;47.806;12.858;2023-11-19T04:47:10;5.03;;;4.63;;
1000;SDS011;489;47.806;12.858;2023-11-19T04:49:12;6.87;;;6.27;;
1000;SDS011;489;47.806;12.858;2023-11-19T04:51:15;5.80;;;5.30;;
1000;SDS011;489;47.806;12.858;2023-11-19T04:53:17;4.43;;;4.00;;
1000;SDS011;489;47.806;12.858;2023-11-19T04:55:20;2.67;;;2.47;;
1000;SDS011;489;47.806;12.858;2023-11-19T04:57:22;3.37;;;2.57;;
1000;SDS011;489;47.806;12.858;2023-11-19T04:59:24;2.07;;;1.90;;
1000;SDS011;489;47.806;12.858;2023-11-19T05:01:28;2.10;;;1.90;;
1000;SDS011;489;47.806;12.858;2023-11-19T05:03:30;1.93;;;1.73;;
1000;SDS011;489;47.806;12.858;2023-11-19T05:05:32;1.70;;;1.60;;
1000;SDS011;489;47.806;12.858;2023-11-19T05:07:34;2.37;;;2.17;;
1000;SDS011;489;47.806;12.858;2023-11-19T05:09:36;2.67;;;2.47;;
1000;SDS011;489;47.806;12.858;2023-11-19T05:11:40;3.17;;;2.40;;
1000;SDS011;489;47.806;12.858;2023-11-19T05:13:42;2.20;;;2.10;;
1000;SDS011;489;47.806;12.858;2023-11-19T05:15:45;2.30;;;2.10;;
1000;SDS011;489;47.806;12.858;2023-11-19T05:17:47;2.50;;;2.30;;
1000;SDS011;489;47.806;12.858;2023-11-19T05:19:49;2.93;;;2.40;;
1000;SDS011;489;47.806;12.858;2023-11-19T05:21:52;2.50;;;2.30;;
1000;SDS011;489;47.806;12.858;2023-11-19T05:23:53;3.60;;;3.30;;
1000;SDS011;489;47.806;12.858;2023-11-19T05:25:55;3.27;;;2.97;;
1000;SDS011;489;47.806;12.858;2023-11-19T05:28:00;2.40;;;2.20;;
1000;SDS011;489;47.806;12.858;2023-11-19T05:30:02;2.20;;;2.00;;
1000;SDS011;489;47.806;12.858;2023-11-19T05:32:03;3.40;;;2.93;;
1000;SDS011;489;47.806;12.858;2023-11-19T05:34:05;3.77;;;3.43;;
1000;SDS011;489;47.806;12.858;2023-11-19T05:36:07;2.77;;;2.57;;
1000;SDS011;489;47.806;12.858;2023-11-19T05:38:10;3.97;;;3.67;;
1000;SDS011;489;47.806;12.858;2023-11-19T05:40:11;2.80;;;2.60;;
1000;SDS011;489;47.806;12.858;2023-11-19T05:42:15;3.00;;;2.80;;
1000;SDS011;489;47.806;12.858;2023-11-19T05:44:18;2.43;;;2.20;;
1000;SDS011;489;47.806;12.858;2023-11-19T05:46:20;2.73;;;2.40;;
1000;SDS011;489;47.806;12.858;2023-11-19T05:48:21;2.57;;;2.37;;
1000;SDS011;489;47.806;12.858;2023-11-19T05:50:24;2.93;;;2.73;;
1000;SDS011;489;47.806;12.858;2023-11-19T05:52:26;2.97;;;2.67;;
1000;SDS011;489;47.806;12.858;2023-11-19T05:54:28;2.57;;;2.30;;
1000;SDS011;489;47.806;12.858;2023-11-19T05:56:31;3.50;;;3.20;;
1000;SDS011;489;47.806;12.858;2023-11-19T05:58:33;3.43;;;2.90;;
1000;SDS011;489;47.806;12.858;2023-11-19T06:00:37;3.37;;;3.07;;
1000;SDS011;489;47.806;12.858;2023-11-19T06:02:39;3.23;;;2.77;;
1000;SDS011;489;47.806;12.858;2023-11-19T06:04:41;6.80;;;4.30;;
1000;SDS011;489;47.806;12.858;2023-11-19T06:06:44;7.90;;;5.67;;
1000;SDS011;489;47.806;12.858;2023-11-19T06:08:46;9.77;;;7.43;;
1000;SDS011;489;47.806;12.858;2023-11-19T06:10:48;12.33;;;9.90;;
1000;SDS011;489;47.806;12.858;2023-11-19T06:12:51;8.60;;;6.80;;
1000;SDS011;489;47.806;12.858;2023-11-19T06:14:56;6.83;;;5.37;;
1000;SDS011;489;47.806;12.858;2023-11-19T06:16:59;4.87;;;4.37;;
1000;SDS011;489;47.806;12.858;2023-11-19T06:19:01;6.10;;;5.00;;
1000;SDS011;489;47.806;12.858;2023-11-19T06:21:03;29.13;;;18.50;;
1000;SDS011;489;47.806;12.858;2023-11-19T06:23:06;21.53;;;15.10;;
1000;SDS011;489;47.806;12.858;2023-11-19T06:25:08;17.30;;;11.43;;
1000;SDS011;489;47.806;12.858;2023-11-19T06:27:11;8.03;;;5.90;;
1000;SDS011;489;47.806;12.858;2023-11-19T06:29:12;9.00;;;5.27;;
1000;SDS011;489;47.806;12.858;2023-11-19T06:31:18;9.57;;;6.80;;
1000;SDS011;489;47.806;12.858;2023-11-19T06:33:22;8.93;;;7.17;;
1000;SDS011;489;47.806;12.858;2023-11-19T06:35:23;11.07;;;9.93;;
1000;SDS011;489;47.806;12.858;2023-11-19T06:37:25;2.90;;;2.50;;
1000;SDS011;489;47.806;12.858;2023-11-19T06:39:27;3.10;;;2.83;;
1000;SDS011;489;47.806;12.858;2023-11-19T06:41:29;2.37;;;2.17;;
1000;SDS011;489;47.806;12.858;2023-11-19T06:43:31;2.60;;;2.40;;
1000;SDS011;489;47.806;12.858;2023-11-19T06:45:34;2.30;;;2.10;;
1000;SDS011;489;47.806;12.858;2023-11-19T06:47:37;2.90;;;2.60;;
1000;SDS011;489;47.806;12.858;2023-11-19T06:49:43;3.30;;;2.90;;
1000;SDS011;489;47.806;12.858;2023-11-19T06:51:45;2.20;;;2.00;;
1000;SDS011;489;47.806;12.858;2023-11-19T06:53:47;2.57;;;2.20;;
1000;SDS011;489;47.806;12.858;2023-11-19T06:55:49;3.70;;;2.70;;
1000;SDS011;489;47.806;12.858;2023-11-19T06:57:51;2.20;;;2.00;;
1000;SDS011;489;47.806;12.858;2023-11-19T06:59:54;2.53;;;2.33;;
1000;SDS011;489;47.806;12.858;2023-11-19T07:01:56;1.53;;;1.40;;
1000;SDS011;489;47.806;12.858;2023-11-19T07:03:58;1.47;;;1.30;;
1000;SDS011;489;47.806;12.858;2023-11-19T07:06:02;1.20;;;1.10;;
1000;SDS011;489;47.806;12.858;2023-11-19T07:08:04;0.70;;;0.60;;
1000;SDS011;489;47.806;12.858;2023-11-19T07:10:08;0.90;;;0.63;;
1000;SDS011;489;47.806;12.858;2023-11-19T07:12:11;0.50;;;0.40;;
1000;SDS011;489;47.806;12.858;2023-11-19T07:14:13;0.73;;;0.50;;
1000;SDS011;489;47.806;12.858;2023-11-19T07:16:16;1.53;;;1.10;;
1000;SDS011;489;47.806;12.858;2023-11-19T07:18:18;1.77;;;1.67;;
1000;SDS011;489;47.806;12.858;2023-11-19T07:20:22;3.37;;;1.30;;
1000;SDS011;489;47.806;12.858;2023-11-19T07:22:25;1.37;;;0.70;;
1000;SDS011;489;47.806;12.858;2023-11-19T07:24:26;1.10;;;1.00;;
1000;SDS011;489;47.806;12.858;2023-11-19T07:26:28;0.90;;;0.60;;
1000;SDS011;489;47.806;12.858;2023-11-19T07:28:29;0.60;;;0.60;;
1000;SDS011;489;47.806;12.858;2023-11-19T07:30:31;0.80;;;0.50;;
1000;SDS011;489;47.806;12.858;2023-11-19T07:32:33;0.50;;;0.40;;
1000;SDS011;489;47.806;12.858;2023-11-19T07:34:35;0.70;;;0.50;;
1000;SDS011;489;47.806;12.858;2023-11-19T07:36:37;0.60;;;0.30;;
1000;SDS011;489;47.806;12.858;2023-11-19T07:38:40;0.50;;;0.40;;
1000;SDS011;489;47.806;12.858;2023-11-19T07:40:41;0.53;;;0.40;;
1000;SDS011;489;47.806;12.858;2023-11-19T07:42:44;0.60;;;0.40;;
1000;SDS011;489;47.806;12.858;2023-11-19T07:44:46;0.70;;;0.50;;
1000;SDS011;489;47.806;12.858;2023-11-19T07:46:47;0.50;;;0.30;;
1000;SDS011;489;47.806;12.858;2023-11-19T07:48:49;0.50;;;0.40;;
1000;SDS011;489;47.806;12.858;2023-11-19T07:50:51;2.30;;;0.40;;
1000;SDS011;489;47.806;12.858;2023-11-19T07:52:54;0.63;;;0.30;;
1000;SDS011;489;47.806;12.858;2023-11-19T07:54:57;0.80;;;0.50;;
1000;SDS011;489;47.806;12.858;2023-11-19T07:56:59;0.70;;;0.40;;
1000;SDS011;489;47.806;12.858;2023-11-19T07:59:01;0.47;;;0.30;;
1000;SDS011;489;47.806;12.858;2023-11-19T08:01:03;0.43;;;0.30;;
1000;SDS011;489;47.806;12.858;2023-11-19T08:03:05;0.60;;;0.30;;
1000;SDS011;489;47.806;12.858;2023-11-19T08:05:07;0.50;;;0.40;;
1000;SDS011;489;47.806;12.858;2023-11-19T08:07:09;0.60;;;0.40;;
1000;SDS011;489;47.806;12.858;2023-11-19T08:09:10;0.70;;;0.30;;
1000;SDS011;489;47.806;12.858;2023-11-19T08:11:15;0.40;;;0.30;;
1000;SDS011;489;47.806;12.858;2023-11-19T08:13:17;0.73;;;0.37;;
1000;SDS011;489;47.806;12.858;2023-11-19T08:15:18;0.50;;;0.30;;
1000;SDS011;489;47.806;12.858;2023-11-19T08:17:20;0.50;;;0.40;;
1000;SDS011;489;47.806;12.858;2023-11-19T08:19:23;0.50;;;0.40;;
1000;SDS011;489;47.806;12.858;2023-11-19T08:21:25;0.50;;;0.40;;
1000;SDS011;489;47.806;12.858;2023-11-19T08:23:27;0.70;;;0.40;;
1000;SDS011;489;47.806;12.858;2023-11-19T08:25:29;0.80;;;0.70;;
1000;SDS011;489;47.806;12.858;2023-11-19T08:27:32;0.83;;;0.63;;
1000;SDS011;489;47.806;12.858;2023-11-19T08:29:34;0.60;;;0.40;;
1000;SDS011;489;47.806;12.858;2023-11-19T08:31:37;0.60;;;0.40;;
1000;SDS011;489;47.806;12.858;2023-11-19T08:33:39;0.70;;;0.50;;
1000;SDS011;489;47.806;12.858;2023-11-19T08:35:41;0.60;;;0.40;;
1000;SDS011;489;47.806;12.858;2023-11-19T08:37:43;1.00;;;0.67;;
1000;SDS011;489;47.806;12.858;2023-11-19T08:39:46;0.70;;;0.50;;
1000;SDS011;489;47.806;12.858;2023-11-19T08:41:48;0.73;;;0.60;;
1000;SDS011;489;47.806;12.858;2023-11-19T08:43:52;0.73;;;0.60;;
1000;SDS011;489;47.806;12.858;2023-11-19T08:45:53;0.50;;;0.50;;
1000;SDS011;489;47.806;12.858;2023-11-19T08:47:54;0.50;;;0.30;;
1000;SDS011;489;47.806;12.858;2023-11-19T08:49:56;0.73;;;0.40;;
1000;SDS011;489;47.806;12.858;2023-11-19T08:51:57;0.50;;;0.37;;
1000;SDS011;489;47.806;12.858;2023-11-19T08:53:59;0.50;;;0.40;;
1000;SDS011;489;47.806;12.858;2023-11-19T08:56:01;0.50;;;0.40;;
1000;SDS011;489;47.806;12.858;2023-11-19T08:58:03;0.60;;;0.50;;
1000;SDS011;489;47.806;12.858;2023-11-19T09:00:07;0.50;;;0.37;;
1000;SDS011;489;47.806;12.858;2023-11-19T09:02:09;0.77;;;0.47;;
1000;SDS011;489;47.806;12.858;2023-11-19T09:04:11;0.70;;;0.60;;
1000;SDS011;489;47.806;12.858;2023-11-19T09:06:13;0.60;;;0.60;;
1000;SDS011;489;47.806;12.858;2023-11-19T09:08:15;0.60;;;0.60;;
1000;SDS011;489;47.806;12.858;2023-11-19T09:10:15;0.70;;;0.60;;
1000;SDS011;489;47.806;12.858;2023-11-19T09:12:17;0.60;;;0.40;;
1000;SDS011;489;47.806;12.858;2023-11-19T09:14:18;0.70;;;0.40;;
1000;SDS011;489;47.806;12.858;2023-11-19T09:16:25;0.60;;;0.60;;
1000;SDS011;489;47.806;12.858;2023-11-19T09:18:27;0.70;;;0.60;;
1000;SDS011;489;47.806;12.858;2023-11-19T09:20:29;0.60;;;0.50;;
1000;SDS011;489;47.806;12.858;2023-11-19T09:22:37;1.13;;;0.60;;
1000;SDS011;489;47.806;12.858;2023-11-19T09:24:39;0.60;;;0.43;;
1000;SDS011;489;47.806;12.858;2023-11-19T09:26:41;0.50;;;0.40;;
1000;SDS011;489;47.806;12.858;2023-11-19T09:28:42;0.50;;;0.40;;
1000;SDS011;489;47.806;12.858;2023-11-19T09:30:44;0.53;;;0.40;;
1000;SDS011;489;47.806;12.858;2023-11-19T09:32:47;0.60;;;0.40;;
1000;SDS011;489;47.806;12.858;2023-11-19T09:34:49;1.43;;;0.73;;
1000;SDS011;489;47.806;12.858;2023-11-19T09:36:51;1.20;;;0.63;;
1000;SDS011;489;47.806;12.858;2023-11-19T09:38:52;0.87;;;0.70;;
1000;SDS011;489;47.806;12.858;2023-11-19T09:40:54;0.57;;;0.53;;
1000;SDS011;489;47.806;12.858;2023-11-19T09:42:57;0.80;;;0.70;;
1000;SDS011;489;47.806;12.858;2023-11-19T09:44:59;1.20;;;0.80;;
1000;SDS011;489;47.806;12.858;2023-11-19T09:47:01;2.63;;;0.90;;
1000;SDS011;489;47.806;12.858;2023-11-19T09:49:05;1.00;;;0.60;;
1000;SDS011;489;47.806;12.858;2023-11-19T09:51:11;0.70;;;0.50;;
1000;SDS011;489;47.806;12.858;2023-11-19T09:53:13;0.60;;;0.60;;
1000;SDS011;489;47.806;12.858;2023-11-19T09:55:15;0.70;;;0.60;;
1000;SDS011;489;47.806;12.858;2023-11-19T09:57:17;1.30;;;0.60;;
1000;SDS011;489;47.806;12.858;2023-11-19T09:59:19;0.87;;;0.40;;
1000;SDS011;489;47.806;12.858;2023-11-19T10:01:20;0.60;;;0.50;;
1000;SDS011;489;47.806;12.858;2023-11-19T10:03:22;0.70;;;0.60;;
1000;SDS011;489;47.806;12.858;2023-11-19T10:05:26;0.60;;;0.57;;
1000;SDS011;489;47.806;12.858;2023-11-19T10:07:28;0.70;;;0.43;;
1000;SDS011;489;47.806;12.858;2023-11-19T10:09:33;2.97;;;0.50;;
1000;SDS011;489;47.806;12.858;2023-11-19T10:11:35;0.60;;;0.47;;
1000;SDS011;489;47.806;12.858;2023-11-19T10:13:37;0.70;;;0.40;;
1000;SDS011;489;47.806;12.858;2023-11-19T10:15:39;0.70;;;0.50;;
1000;SDS011;489;47.806;12.858;2023-11-19T10:17:41;0.53;;;0.47;;
1000;SDS011;489;47.806;12.858;2023-11-19T10:19:43;1.00;;;0.70;;
1000;SDS011;489;47.806;12.858;2023-11-19T10:21:46;0.90;;;0.70;;
1000;SDS011;489;47.806;12.858;2023-11-19T10:23:49;2.00;;;0.90;;
1000;SDS011;489;47.806;12.858;2023-11-19T10:25:52;1.30;;;0.80;;
1000;SDS011;489;47.806;12.858;2023-11-19T10:27:54;0.93;;;0.80;;
1000;SDS011;489;47.806;12.858;2023-11-19T10:29:59;1.10;;;1.00;;
1000;SDS011;489;47.806;12.858;2023-11-19T10:32:00;1.10;;;0.90;;
1000;SDS011;489;47.806;12.858;2023-11-19T10:34:02;1.83;;;1.73;;
1000;SDS011;489;47.806;12.858;2023-11-19T10:36:06;1.20;;;0.80;;
1000;SDS011;489;47.806;12.858;2023-11-19T10:38:14;1.00;;;0.80;;
1000;SDS011;489;47.806;12.858;2023-11-19T10:40:16;0.50;;;0.50;;
1000;SDS011;489;47.806;12.858;2023-11-19T10:42:19;0.60;;;0.50;;
1000;SDS011;489;47.806;12.858;2023-11-19T10:46:39;0.97;;;0.80;;
1000;SDS011;489;47.806;12.858;2023-11-19T10:48:42;0.73;;;0.60;;
1000;SDS011;489;47.806;12.858;2023-11-19T10:50:44;0.60;;;0.50;;
1000;SDS011;489;47.806;12.858;2023-11-19T10:52:47;1.33;;;0.90;;
1000;SDS011;489;47.806;12.858;2023-11-19T10:54:51;0.90;;;0.70;;
1000;SDS011;489;47.806;12.858;2023-11-19T10:56:57;1.13;;;0.80;;
1000;SDS011;489;47.806;12.858;2023-11-19T10:59:02;1.10;;;0.80;;
1000;SDS011;489;47.806;12.858;2023-11-19T11:01:07;1.13;;;0.80;;
1000;SDS011;489;47.806;12.858;2023-11-19T11:03:15;1.67;;;0.90;;
1000;SDS011;489;47.806;12.858;2023-11-19T11:05:18;1.27;;;1.00;;
1000;SDS011;489;47.806;12.858;2023-11-19T11:07:21;0.80;;;0.70;;
1000;SDS011;489;47.806;12.858;2023-11-19T11:09:25;0.70;;;0.60;;
1000;SDS011;489;47.806;12.858;2023-11-19T11:11:29;0.93;;;0.73;;
1000;SDS011;489;47.806;12.858;2023-11-19T11:13:32;1.37;;;0.93;;
1000;SDS011;489;47.806;12.858;2023-11-19T11:15:35;2.10;;;1.20;;
1000;SDS011;489;47.806;12.858;2023-11-19T11:17:37;1.87;;;1.23;;
1000;SDS011;489;47.806;12.858;2023-11-19T11:19:41;1.20;;;1.10;;
1000;SDS011;489;47.806;12.858;2023-11-19T11:21:44;1.20;;;0.90;;
1000;SDS011;489;47.806;12.858;2023-11-19T11:24:13;0.97;;;0.80;;
1000;SDS011;489;47.806;12.858;2023-11-19T11:26:35;0.60;;;0.60;;
1000;SDS011;489;47.806;12.858;2023-11-19T11:28:48;1.97;;;1.60;;
1000;SDS011;489;47.806;12.858;2023-11-19T11:31:02;0.87;;;0.63;;
1000;SDS011;489;47.806;12.858;2023-11-19T11:33:26;1.17;;;0.50;;
1000;SDS011;489;47.806;12.858;2023-11-19T11:35:37;0.70;;;0.63;;
1000;SDS011;489;47.806;12.858;2023-11-19T11:37:49;4.43;;;4.13;;
1000;SDS011;489;47.806;12.858;2023-11-19T11:39:52;0.87;;;0.83;;
1000;SDS011;489;47.806;12.858;2023-11-19T11:47:05;0.90;;;0.80;;
1000;SDS011;489;47.806;12.858;2023-11-19T11:49:07;2.57;;;1.17;;
1000;SDS011;489;47.806;12.858;2023-11-19T11:51:08;1.40;;;0.70;;
1000;SDS011;489;47.806;12.858;2023-11-19T11:53:13;0.70;;;0.57;;
1000;SDS011;489;47.806;12.858;2023-11-19T11:55:15;0.60;;;0.40;;
1000;SDS011;489;47.806;12.858;2023-11-19T11:57:17;0.77;;;0.67;;
1000;SDS011;489;47.806;12.858;2023-11-19T11:59:19;0.70;;;0.70;;
1000;SDS011;489;47.806;12.858;2023-11-19T12:01:21;0.67;;;0.50;;
1000;SDS011;489;47.806;12.858;2023-11-19T12:03:29;1.13;;;0.50;;
1000;SDS011;489;47.806;12.858;2023-11-19T12:05:31;0.73;;;0.73;;
1000;SDS011;489;47.806;12.858;2023-11-19T12:07:35;0.70;;;0.50;;
1000;SDS011;489;47.806;12.858;2023-11-19T12:09:39;0.80;;;0.60;;
1000;SDS011;489;47.806;12.858;2023-11-19T12:11:46;0.57;;;0.53;;
1000;SDS011;489;47.806;12.858;2023-11-19T12:13:55;0.70;;;0.50;;
1000;SDS011;489;47.806;12.858;2023-11-19T12:16:08;0.50;;;0.40;;
1000;SDS011;489;47.806;12.858;2023-11-19T12:18:13;0.93;;;0.50;;
1000;SDS011;489;47.806;12.858;2023-11-19T12:20:21;0.60;;;0.40;;
1000;SDS011;489;47.806;12.858;2023-11-19T12:22:23;0.50;;;0.40;;
1000;SDS011;489;47.806;12.858;2023-11-19T12:24:26;0.50;;;0.40;;
1000;SDS011;489;47.806;12.858;2023-11-19T12:26:35;0.60;;;0.50;;
1000;SDS011;489;47.806;12.858;2023-11-19T12:28:39;0.60;;;0.50;;
1000;SDS011;489;47.806;12.858;2023-11-19T12:30:41;0.80;;;0.40;;
1000;SDS011;489;47.806;12.858;2023-11-19T12:32:44;0.70;;;0.50;;
1000;SDS011;489;47.806;12.858;2023-11-19T12:34:47;0.80;;;0.50;;
1000;SDS011;489;47.806;12.858;2023-11-19T12:36:49;0.60;;;0.50;;
1000;SDS011;489;47.806;12.858;2023-11-19T12:38:51;1.50;;;0.70;;
1000;SDS011;489;47.806;12.858;2023-11-19T12:41:02;0.93;;;0.70;;
1000;SDS011;489;47.806;12.858;2023-11-19T12:43:04;1.43;;;0.80;;
1000;SDS011;489;47.806;12.858;2023-11-19T12:45:06;0.60;;;0.60;;
1000;SDS011;489;47.806;12.858;2023-11-19T12:47:10;0.50;;;0.50;;
1000;SDS011;489;47.806;12.858;2023-11-19T12:49:12;0.57;;;0.50;;
1000;SDS011;489;47.806;12.858;2023-11-19T12:51:15;0.90;;;0.70;;